createdAt,value
2023-03-12T00:00:12.604Z,72.50
2023-03-12T00:02:43.121Z,87.00
2023-03-12T00:05:13.616Z,81.25
2023-03-12T00:07:44.142Z,57.00
2023-03-12T00:10:15.461Z,47.50
2023-03-12T00:12:46.497Z,37.75
2023-03-12T00:15:17.438Z,50.25
2023-03-12T00:17:48.486Z,52.25
2023-03-12T00:20:19.310Z,63.50
2023-03-12T00:22:50.485Z,66.50
2023-03-12T00:25:21.491Z,60.75
2023-03-12T00:27:52.484Z,69.50
2023-03-12T00:30:23.534Z,50.25
2023-03-12T00:32:54.532Z,55.75
2023-03-12T00:35:25.393Z,55.25
2023-03-12T00:37:55.970Z,55.50
2023-03-12T00:40:26.487Z,53.25
2023-03-12T00:42:56.743Z,60.25
2023-03-12T00:45:27.175Z,58.00
2023-03-12T00:47:57.481Z,55.75
2023-03-12T00:50:27.971Z,56.25
2023-03-12T00:52:58.323Z,46.25
2023-03-12T00:55:28.647Z,26.50
2023-03-12T00:57:59.093Z,32.50
2023-03-12T01:00:29.492Z,19.50
2023-03-12T01:02:59.994Z,26.75
2023-03-12T01:05:31.870Z,29.00
2023-03-12T01:08:04.786Z,20.50
2023-03-12T01:10:36.612Z,19.00
2023-03-12T01:13:07.605Z,18.50
2023-03-12T01:15:38.114Z,11.50
2023-03-12T01:18:08.592Z,15.25
2023-03-12T01:20:39.834Z,18.00
2023-03-12T01:23:10.418Z,10.25
2023-03-12T01:25:41.925Z,9.00
2023-03-12T01:28:12.321Z,5.25
2023-03-12T01:30:42.660Z,8.50
2023-03-12T01:33:13.499Z,3.75
2023-03-12T01:35:43.895Z,4.00
2023-03-12T01:38:16.247Z,9.75
2023-03-12T01:40:46.640Z,8.75
2023-03-12T01:43:29.702Z,10.75
2023-03-12T01:46:03.153Z,10.75
2023-03-12T01:48:42.740Z,8.75
2023-03-12T01:51:15.551Z,10.75
2023-03-12T01:53:49.128Z,11.25
2023-03-12T01:56:21.065Z,11.75
2023-03-12T01:59:12.208Z,10.50
2023-03-12T02:01:43.467Z,13.25
2023-03-12T02:04:15.767Z,9.00
2023-03-12T02:07:07.262Z,11.75
2023-03-12T02:12:19.528Z,14.75
2023-03-12T02:14:49.946Z,15.25
2023-03-12T02:17:20.667Z,9.75
2023-03-12T02:20:08.969Z,13.75
2023-03-12T02:22:42.636Z,17.75
2023-03-12T02:25:24.685Z,11.75
2023-03-12T02:27:55.778Z,17.75
2023-03-12T02:30:29.346Z,16.75
2023-03-12T02:33:05.432Z,16.75
2023-03-12T02:35:37.225Z,14.75
2023-03-12T02:38:25.413Z,12.25
2023-03-12T02:40:58.681Z,16.00
2023-03-12T02:43:30.052Z,17.75
2023-03-12T02:46:01.036Z,22.50
2023-03-12T02:48:31.815Z,18.75
2023-03-12T02:51:02.355Z,17.75
2023-03-12T02:53:33.142Z,15.00
2023-03-12T02:56:03.961Z,15.75
2023-03-12T02:58:34.971Z,19.50
2023-03-12T03:01:05.957Z,17.50
2023-03-12T03:03:37.323Z,19.75
2023-03-12T03:06:08.025Z,20.75
2023-03-12T03:08:38.645Z,21.75
2023-03-12T03:11:09.831Z,6.00
2023-03-12T03:13:40.451Z,10.25
2023-03-12T03:16:11.233Z,13.50
2023-03-12T03:18:42.217Z,16.25
2023-03-12T03:21:13.931Z,15.00
2023-03-12T03:23:47.275Z,16.75
2023-03-12T03:26:20.573Z,18.25
2023-03-12T03:28:51.642Z,14.00
2023-03-12T03:31:22.724Z,20.00
2023-03-12T03:33:53.292Z,21.50
2023-03-12T03:36:23.748Z,16.25
2023-03-12T03:38:54.904Z,15.75
2023-03-12T03:41:25.873Z,15.75
2023-03-12T03:43:58.132Z,20.00
2023-03-12T03:46:28.494Z,18.50
2023-03-12T03:48:58.765Z,15.25
2023-03-12T03:51:30.561Z,14.50
2023-03-12T03:54:01.629Z,12.75
2023-03-12T03:56:32.396Z,16.50
2023-03-12T03:59:24.055Z,14.25
2023-03-12T04:01:54.685Z,15.75
2023-03-12T04:04:25.154Z,19.50
2023-03-12T04:06:57.254Z,15.50
2023-03-12T04:09:27.830Z,19.50
2023-03-12T04:11:59.594Z,20.50
2023-03-12T04:14:30.472Z,18.25
2023-03-12T04:17:01.433Z,18.25
2023-03-12T04:19:32.070Z,22.00
2023-03-12T04:22:03.302Z,23.50
2023-03-12T04:24:33.861Z,15.50
2023-03-12T04:27:04.312Z,17.25
2023-03-12T04:29:35.837Z,19.00
2023-03-12T04:32:06.994Z,13.25
2023-03-12T04:34:37.445Z,14.25
2023-03-12T04:37:08.235Z,19.25
2023-03-12T04:39:38.740Z,28.25
2023-03-12T04:42:09.496Z,15.50
2023-03-12T04:44:41.139Z,23.00
2023-03-12T04:47:12.354Z,24.00
2023-03-12T04:49:43.108Z,17.50
2023-03-12T04:52:13.474Z,19.00
2023-03-12T04:54:47.458Z,23.00
2023-03-12T04:57:16.843Z,16.25
2023-03-12T04:59:47.365Z,18.00
2023-03-12T05:02:18.616Z,20.25
2023-03-12T05:04:49.124Z,16.75
2023-03-12T05:07:19.652Z,22.25
2023-03-12T05:09:50.878Z,17.50
2023-03-12T05:12:21.647Z,19.00
2023-03-12T05:14:52.567Z,18.50
2023-03-12T05:17:23.083Z,7.00
2023-03-12T05:19:54.489Z,29.75
2023-03-12T05:22:25.046Z,15.50
2023-03-12T05:24:55.925Z,18.75
2023-03-12T05:27:26.352Z,19.50
2023-03-12T05:29:57.036Z,21.25
2023-03-12T05:32:27.459Z,51.25
2023-03-12T05:34:58.833Z,18.50
2023-03-12T05:37:29.320Z,24.00
2023-03-12T05:39:59.942Z,30.25
2023-03-12T05:42:30.424Z,23.25
2023-03-12T05:45:03.741Z,22.25
2023-03-12T05:47:35.217Z,17.25
2023-03-12T05:50:06.206Z,20.75
2023-03-12T05:52:37.764Z,17.50
2023-03-12T05:55:09.426Z,13.00
2023-03-12T05:57:40.897Z,12.50
2023-03-12T06:00:14.585Z,16.00
2023-03-12T06:02:46.187Z,14.75
2023-03-12T06:05:16.660Z,12.00
2023-03-12T06:07:47.954Z,12.75
2023-03-12T06:10:18.640Z,12.50
2023-03-12T06:12:49.328Z,12.75
2023-03-12T06:15:20.548Z,13.50
2023-03-12T06:17:51.764Z,18.50
2023-03-12T06:20:22.859Z,11.75
2023-03-12T06:22:54.160Z,11.25
2023-03-12T06:25:25.103Z,9.50
2023-03-12T06:27:56.446Z,21.25
2023-03-12T06:30:27.400Z,24.75
2023-03-12T06:32:58.030Z,36.50
2023-03-12T06:35:28.692Z,37.00
2023-03-12T06:38:00.110Z,24.50
2023-03-12T06:40:31.289Z,13.75
2023-03-12T06:43:02.568Z,21.75
2023-03-12T06:45:33.355Z,32.00
2023-03-12T06:48:04.917Z,34.25
2023-03-12T06:50:35.843Z,17.50
2023-03-12T06:53:06.941Z,11.25
2023-03-12T06:55:38.163Z,8.50
2023-03-12T06:58:08.745Z,5.50
2023-03-12T07:00:39.287Z,2.00
2023-03-12T07:03:10.024Z,2.00
2023-03-12T07:05:40.490Z,2.25
2023-03-12T07:08:11.863Z,3.75
2023-03-12T07:10:44.048Z,3.50
2023-03-12T07:13:15.578Z,2.25
2023-03-12T07:15:46.938Z,2.25
2023-03-12T07:18:18.603Z,21.75
2023-03-12T07:20:50.672Z,34.25
2023-03-12T07:23:25.422Z,32.00
2023-03-12T07:25:56.222Z,29.25
2023-03-12T07:28:26.781Z,14.00
2023-03-12T07:31:14.021Z,19.25
2023-03-12T07:33:45.468Z,17.00
2023-03-12T07:36:17.995Z,13.25
2023-03-12T07:38:49.771Z,4.00
2023-03-12T07:41:20.996Z,2.50
2023-03-12T07:43:52.458Z,21.75
2023-03-12T07:46:24.349Z,17.75
2023-03-12T07:48:55.477Z,5.75
2023-03-12T07:51:26.390Z,19.25
2023-03-12T07:53:59.282Z,17.00
2023-03-12T07:56:30.377Z,12.00
2023-03-12T07:59:01.521Z,10.25
2023-03-12T08:01:34.706Z,5.50
2023-03-12T08:04:05.904Z,20.00
2023-03-12T08:06:36.537Z,45.00
2023-03-12T08:09:07.760Z,40.75
2023-03-12T08:11:38.598Z,20.00
2023-03-12T08:14:10.120Z,63.75
2023-03-12T08:16:41.152Z,22.25
2023-03-12T08:19:12.271Z,18.00
2023-03-12T08:21:44.058Z,17.25
2023-03-12T08:24:15.102Z,3.00
2023-03-12T08:26:45.693Z,3.00
2023-03-12T08:29:17.674Z,2.75
2023-03-12T08:32:03.674Z,5.00
2023-03-12T08:34:21.117Z,3.50
2023-03-12T08:36:51.728Z,2.00
2023-03-12T08:39:23.263Z,2.75
2023-03-12T08:41:54.867Z,1.00
2023-03-12T08:44:29.971Z,1.25
2023-03-12T08:47:00.302Z,2.00
2023-03-12T08:49:31.107Z,2.00
2023-03-12T08:52:02.505Z,2.00
2023-03-12T08:54:36.355Z,3.00
2023-03-12T08:57:07.077Z,4.75
2023-03-12T08:59:38.870Z,2.25
2023-03-12T09:02:17.582Z,4.25
2023-03-12T09:04:51.732Z,3.50
2023-03-12T09:07:22.284Z,0.50
2023-03-12T09:09:54.308Z,2.75
2023-03-12T09:12:25.218Z,2.00
2023-03-12T09:15:03.573Z,1.00
2023-03-12T09:17:30.009Z,3.25
2023-03-12T09:20:01.874Z,5.50
2023-03-12T09:22:32.860Z,7.00
2023-03-12T09:25:05.036Z,15.50
2023-03-12T09:27:58.854Z,22.75
2023-03-12T09:30:29.562Z,19.00
2023-03-12T09:33:01.130Z,3.00
2023-03-12T09:35:32.346Z,2.25
2023-03-12T09:38:03.937Z,2.50
2023-03-12T09:40:38.020Z,2.00
2023-03-12T09:43:17.219Z,3.00
2023-03-12T09:46:08.408Z,2.25
2023-03-12T09:48:40.729Z,2.75
2023-03-12T09:54:02.512Z,2.00
2023-03-12T09:56:35.217Z,4.50
2023-03-12T09:59:08.976Z,2.25
2023-03-12T10:01:46.319Z,2.00
2023-03-12T10:04:39.934Z,2.00
2023-03-12T10:07:25.844Z,3.00
2023-03-12T10:10:16.334Z,1.25
2023-03-12T10:12:52.869Z,2.00
2023-03-12T10:15:57.876Z,2.00
2023-03-12T10:18:48.368Z,1.75
2023-03-12T10:24:14.732Z,2.00
2023-03-12T10:26:48.923Z,3.00
2023-03-12T10:29:24.860Z,65.25
2023-03-12T10:32:13.063Z,24.00
2023-03-12T10:35:06.099Z,69.50
2023-03-12T10:37:40.197Z,36.75
2023-03-12T10:40:17.410Z,46.75
2023-03-12T10:42:48.138Z,17.00
2023-03-12T10:45:24.599Z,48.25
2023-03-12T10:48:15.799Z,21.00
2023-03-12T10:50:50.458Z,1.50
2023-03-12T10:53:29.931Z,1.75
2023-03-12T10:56:15.301Z,44.25
2023-03-12T10:58:49.100Z,44.25
2023-03-12T11:01:28.654Z,77.00
2023-03-12T11:04:16.927Z,53.50
2023-03-12T11:07:06.621Z,6.75
2023-03-12T11:09:38.321Z,4.00
2023-03-12T11:12:30.608Z,1.25
2023-03-12T11:15:02.718Z,2.75
2023-03-12T11:17:33.613Z,2.00
2023-03-12T11:20:19.842Z,2.25
2023-03-12T11:22:51.658Z,1.00
2023-03-12T11:25:24.985Z,2.50
2023-03-12T11:27:58.366Z,1.00
2023-03-12T11:30:31.884Z,2.00
2023-03-12T11:33:03.399Z,2.00
2023-03-12T11:35:53.223Z,1.00
2023-03-12T11:38:26.586Z,1.00
2023-03-12T11:44:01.108Z,3.25
2023-03-12T11:46:46.581Z,2.25
2023-03-12T11:49:28.390Z,5.25
2023-03-12T11:52:13.095Z,4.25
2023-03-12T11:55:15.011Z,6.00
2023-03-12T11:58:15.884Z,3.00
2023-03-12T12:01:04.667Z,2.75
2023-03-12T12:04:01.347Z,3.00
2023-03-12T12:06:51.492Z,2.75
2023-03-12T12:09:37.111Z,1.50
2023-03-12T12:12:23.304Z,1.00
2023-03-12T12:15:17.113Z,30.50
2023-03-12T12:17:56.916Z,65.00
2023-03-12T12:20:35.816Z,45.25
2023-03-12T12:23:18.902Z,11.00
2023-03-12T12:26:06.322Z,1.25
2023-03-12T12:29:04.547Z,2.00
2023-03-12T12:31:47.198Z,1.75
2023-03-12T12:37:37.512Z,1.25
2023-03-12T12:40:22.885Z,1.00
2023-03-12T12:43:26.032Z,0.00
2023-03-12T12:46:13.336Z,1.00
2023-03-12T12:49:01.702Z,3.50
2023-03-12T12:51:39.377Z,2.00
2023-03-12T12:54:32.887Z,1.00
2023-03-12T12:57:18.640Z,1.50
2023-03-12T13:03:07.001Z,2.00
2023-03-12T13:05:40.349Z,1.00
2023-03-12T13:08:13.780Z,2.00
2023-03-12T13:10:53.367Z,2.00
2023-03-12T13:13:31.435Z,2.75
2023-03-12T13:16:33.316Z,2.00
2023-03-12T13:19:10.550Z,1.25
2023-03-12T13:21:53.408Z,1.00
2023-03-12T13:24:26.741Z,2.50
2023-03-12T13:27:34.825Z,1.00
2023-03-12T13:30:34.658Z,71.75
2023-03-12T13:33:09.006Z,3.25
2023-03-12T13:35:40.439Z,2.00
2023-03-12T13:38:23.255Z,1.00
2023-03-12T13:40:57.470Z,1.00
2023-03-12T13:43:37.777Z,1.25
2023-03-12T13:46:17.260Z,3.00
2023-03-12T13:48:50.603Z,2.00
2023-03-12T13:51:24.476Z,1.75
2023-03-12T13:53:58.217Z,1.50
2023-03-12T13:56:38.676Z,1.75
2023-03-12T14:02:08.459Z,2.00
2023-03-12T14:04:42.110Z,1.00
2023-03-12T14:07:31.509Z,1.00
2023-03-12T14:10:25.636Z,0.50
2023-03-12T14:12:58.935Z,0.00
2023-03-12T14:15:45.067Z,0.75
2023-03-12T14:18:24.749Z,41.80
2023-03-12T14:21:00.161Z,92.40
2023-03-12T14:23:41.748Z,141.25
2023-03-12T14:26:33.210Z,146.40
2023-03-12T14:29:06.622Z,157.80
2023-03-12T14:31:38.667Z,147.40
2023-03-12T14:34:39.445Z,128.20
2023-03-12T14:41:33.944Z,151.40
2023-03-12T14:44:07.334Z,152.40
2023-03-12T14:46:39.896Z,125.80
2023-03-12T14:49:12.526Z,129.60
2023-03-12T14:51:44.946Z,103.60
2023-03-12T14:54:21.692Z,118.00
2023-03-12T14:56:53.044Z,105.80
2023-03-12T14:59:47.284Z,136.60
2023-03-12T15:02:20.367Z,127.80
2023-03-12T15:04:55.390Z,119.00
2023-03-12T15:07:31.782Z,136.40
2023-03-12T15:10:05.787Z,137.20
2023-03-12T15:12:38.360Z,140.60
2023-03-12T15:15:11.999Z,153.40
2023-03-12T15:17:43.210Z,134.60
2023-03-12T15:20:16.410Z,129.60
2023-03-12T15:22:47.306Z,106.40
2023-03-12T15:25:33.011Z,55.60
2023-03-12T15:31:14.274Z,1.25
2023-03-12T15:33:45.547Z,4.25
2023-03-12T15:36:19.116Z,2.50
2023-03-12T15:38:53.922Z,2.00
2023-03-12T15:41:47.532Z,4.00
2023-03-12T15:44:24.087Z,3.00
2023-03-12T15:52:37.018Z,3.50
2023-03-12T15:55:16.559Z,3.00
2023-03-12T15:57:50.977Z,6.25
2023-03-12T16:00:33.703Z,5.00
2023-03-12T16:03:05.497Z,2.25
2023-03-12T16:05:39.584Z,4.00
2023-03-12T16:08:24.809Z,3.00
2023-03-12T16:10:55.745Z,5.00
2023-03-12T16:13:31.869Z,5.25
2023-03-12T16:16:02.569Z,6.75
2023-03-12T16:18:35.543Z,6.00
2023-03-12T16:21:12.114Z,6.50
2023-03-12T16:23:48.426Z,6.00
2023-03-12T16:26:19.238Z,6.25
2023-03-12T16:28:49.977Z,2.50
2023-03-12T16:31:20.644Z,3.00
2023-03-12T16:33:53.170Z,6.00
2023-03-12T16:36:35.173Z,5.50
2023-03-12T16:39:06.391Z,6.50
2023-03-12T16:41:38.760Z,2.00
2023-03-12T16:44:12.777Z,5.75
2023-03-12T16:46:47.138Z,5.00
2023-03-12T16:49:18.480Z,4.00
2023-03-12T16:51:48.842Z,9.00
2023-03-12T16:54:19.432Z,6.50
2023-03-12T16:56:50.072Z,2.00
2023-03-12T16:59:28.270Z,6.00
2023-03-12T17:01:59.067Z,6.25
2023-03-12T17:04:29.996Z,4.50
2023-03-12T17:07:00.370Z,4.00
2023-03-12T17:09:30.746Z,4.50
2023-03-12T17:12:03.031Z,3.50
2023-03-12T17:14:33.841Z,6.00
2023-03-12T17:17:04.947Z,2.25
2023-03-12T17:19:35.431Z,7.00
2023-03-12T17:22:08.330Z,3.00
2023-03-12T17:24:39.404Z,5.25
2023-03-12T17:27:16.129Z,6.00
2023-03-12T17:29:49.710Z,5.75
2023-03-12T17:32:37.958Z,6.75
2023-03-12T17:35:09.871Z,8.00
2023-03-12T17:37:41.754Z,7.50
2023-03-12T17:40:14.525Z,4.50
2023-03-12T17:42:45.757Z,9.50
2023-03-12T17:45:16.541Z,6.50
2023-03-12T17:47:47.185Z,6.00
2023-03-12T17:50:18.945Z,6.00
2023-03-12T17:52:49.289Z,6.75
2023-03-12T17:55:20.491Z,5.00
2023-03-12T17:57:51.329Z,5.00
2023-03-12T18:00:23.670Z,5.25
2023-03-12T18:02:55.592Z,6.00
2023-03-12T18:05:29.250Z,6.25
2023-03-12T18:08:00.891Z,6.50
2023-03-12T18:10:31.869Z,5.00
2023-03-12T18:13:23.361Z,5.50
2023-03-12T18:16:07.348Z,5.75
2023-03-12T18:18:40.707Z,6.00
2023-03-12T18:21:12.339Z,8.50
2023-03-12T18:23:43.432Z,5.00
2023-03-12T18:26:15.258Z,12.25
2023-03-12T18:28:46.518Z,3.75
2023-03-12T18:31:19.019Z,13.50
2023-03-12T18:33:52.929Z,11.25
2023-03-12T18:36:27.178Z,12.00
2023-03-12T18:39:02.012Z,13.00
2023-03-12T18:41:36.371Z,12.50
2023-03-12T18:44:09.624Z,12.25
2023-03-12T18:46:42.089Z,12.50
2023-03-12T18:49:13.056Z,11.75
2023-03-12T18:51:45.702Z,9.00
2023-03-12T18:54:16.910Z,13.25
2023-03-12T18:56:48.182Z,13.00
2023-03-12T18:59:19.104Z,15.25
2023-03-12T19:01:49.555Z,13.00
2023-03-12T19:04:22.305Z,15.00
2023-03-12T19:06:53.084Z,7.00
2023-03-12T19:09:26.073Z,13.00
2023-03-12T19:11:57.657Z,10.75
2023-03-12T19:14:30.537Z,10.00
2023-03-12T19:17:04.530Z,9.50
2023-03-12T19:19:36.291Z,6.75
2023-03-12T19:22:07.087Z,10.00
2023-03-12T19:24:37.493Z,9.50
2023-03-12T19:27:09.165Z,14.00
2023-03-12T19:29:40.519Z,8.75
2023-03-12T19:32:12.444Z,10.00
2023-03-12T19:34:43.804Z,5.25
2023-03-12T19:37:15.573Z,9.25
2023-03-12T19:39:46.254Z,9.50
2023-03-12T19:42:17.995Z,17.00
2023-03-12T19:44:48.843Z,10.00
2023-03-12T19:47:20.721Z,12.25
2023-03-12T19:49:51.244Z,11.00
2023-03-12T19:52:23.058Z,12.75
2023-03-12T19:55:03.821Z,12.00
2023-03-12T19:57:27.903Z,6.75
2023-03-12T19:59:59.011Z,10.25
2023-03-12T20:02:30.216Z,12.00
2023-03-12T20:05:01.355Z,8.75
2023-03-12T20:07:32.555Z,10.00
2023-03-12T20:10:05.978Z,12.75
2023-03-12T20:12:38.993Z,9.00
2023-03-12T20:15:09.906Z,9.00
2023-03-12T20:17:41.680Z,15.50
2023-03-12T20:20:14.148Z,17.00
2023-03-12T20:22:46.836Z,12.75
2023-03-12T20:25:20.918Z,9.00
2023-03-12T20:27:52.414Z,14.50
2023-03-12T20:30:23.938Z,12.50
2023-03-12T20:32:55.652Z,15.50
2023-03-12T20:35:26.172Z,11.00
2023-03-12T20:37:58.551Z,14.00
2023-03-12T20:40:29.500Z,19.00
2023-03-12T20:43:00.430Z,14.00
2023-03-12T20:45:32.338Z,12.75
2023-03-12T20:48:02.954Z,16.75
2023-03-12T20:50:35.575Z,11.50
2023-03-12T20:53:07.098Z,14.50
2023-03-12T20:55:41.954Z,9.50
2023-03-12T20:58:12.653Z,12.75
2023-03-12T21:00:43.764Z,16.25
2023-03-12T21:03:15.969Z,13.75
2023-03-12T21:05:55.575Z,9.00
2023-03-12T21:08:27.367Z,10.00
2023-03-12T21:10:57.985Z,9.25
2023-03-12T21:13:29.177Z,8.50
2023-03-12T21:15:59.946Z,10.00
2023-03-12T21:18:30.624Z,18.75
2023-03-12T21:21:06.888Z,8.50
2023-03-12T21:23:40.718Z,8.50
2023-03-12T21:26:12.703Z,12.25
2023-03-12T21:28:44.418Z,11.75
2023-03-12T21:31:36.121Z,5.50
2023-03-12T21:34:09.741Z,8.75
2023-03-12T21:36:39.808Z,9.25
2023-03-12T21:39:11.684Z,11.00
2023-03-12T21:41:43.765Z,9.25
2023-03-12T21:44:16.604Z,8.75
2023-03-12T21:46:47.130Z,10.00
2023-03-12T21:49:18.011Z,9.00
2023-03-12T21:51:48.959Z,10.25
2023-03-12T21:54:21.445Z,9.75
2023-03-12T21:56:52.612Z,7.50
2023-03-12T21:59:23.158Z,14.00
2023-03-12T22:01:54.081Z,8.75
2023-03-12T22:04:24.978Z,5.50
2023-03-12T22:06:55.333Z,13.00
2023-03-12T22:09:26.344Z,13.75
2023-03-12T22:11:57.993Z,9.00
2023-03-12T22:14:28.539Z,12.75
2023-03-12T22:16:59.383Z,14.50
2023-03-12T22:19:29.962Z,12.00
2023-03-12T22:22:01.206Z,13.25
2023-03-12T22:24:32.314Z,9.00
2023-03-12T22:27:02.912Z,11.00
2023-03-12T22:29:38.489Z,9.00
2023-03-12T22:32:17.706Z,12.00
2023-03-12T22:34:49.802Z,6.50
2023-03-12T22:37:21.167Z,7.50
2023-03-12T22:39:52.243Z,12.25
2023-03-12T22:42:25.168Z,9.75
2023-03-12T22:44:56.409Z,8.00
2023-03-12T22:47:26.816Z,17.75
2023-03-12T22:50:00.517Z,11.75
2023-03-12T22:52:31.011Z,11.25
2023-03-12T22:55:01.960Z,11.50
2023-03-12T22:57:40.686Z,10.75
2023-03-12T23:00:17.209Z,13.50
2023-03-12T23:02:47.823Z,7.75
2023-03-12T23:05:18.914Z,13.00
2023-03-12T23:07:49.740Z,9.75
2023-03-12T23:10:20.332Z,8.50
2023-03-12T23:12:51.091Z,10.50
2023-03-12T23:15:24.574Z,10.75
2023-03-12T23:17:54.385Z,8.50
2023-03-12T23:20:25.361Z,12.50
2023-03-12T23:22:55.758Z,10.00
2023-03-12T23:25:29.215Z,10.00
2023-03-12T23:27:59.764Z,9.75
2023-03-12T23:30:30.092Z,11.25
2023-03-12T23:33:01.527Z,8.00
2023-03-12T23:35:32.178Z,8.25
2023-03-12T23:38:05.240Z,10.50
2023-03-12T23:40:35.745Z,9.25
2023-03-12T23:43:07.853Z,9.75
2023-03-12T23:45:38.499Z,10.25
2023-03-12T23:48:08.910Z,12.75
2023-03-12T23:50:39.302Z,9.25
2023-03-12T23:53:09.692Z,14.25
2023-03-12T23:55:40.513Z,8.75
2023-03-12T23:58:10.931Z,11.75
